Time;durP1;ratioP1;P1;durP2;ratioP2;P2;SDS_P1;SDS_P2;PMS_P1;PMS_P2;Temp;Humidity;BMP_temperature;BMP_pressure;BME280_temperature;BME280_humidity;BME280_pressure;Samples;Min_cycle;Max_cycle;Signal;HPM_P1;HPM_P2
2023/06/07 00:02:33;;;;;;;14.10;6.70;;;;;;;-140.66;100.00;55571.53;5116521;28;20055;-78
2023/06/07 00:05:21;;;;;;;13.45;6.60;;;;;;;-140.66;100.00;55571.53;5117115;28;20028;-76
2023/06/07 00:08:07;;;;;;;14.70;6.78;;;;;;;-140.66;100.00;55571.53;5101516;28;20031;-77
2023/06/07 00:10:53;;;;;;;16.15;7.68;;;;;;;-140.66;100.00;55571.53;5116770;28;20048;-77
2023/06/07 00:13:38;;;;;;;13.40;6.97;;;;;;;-140.66;100.00;55571.53;5117175;28;20027;-77
2023/06/07 00:16:24;;;;;;;10.27;7.47;;;;;;;-140.66;100.00;55571.53;5117413;28;20401;-77
2023/06/07 00:19:11;;;;;;;9.77;7.38;;;;;;;-140.66;100.00;55571.53;5115560;28;20027;-77
2023/06/07 00:21:57;;;;;;;13.02;7.60;;;;;;;-140.66;100.00;55571.53;5116325;28;20031;-77
2023/06/07 00:24:43;;;;;;;12.88;7.07;;;;;;;-140.66;100.00;55571.53;5101974;28;20023;-77
2023/06/07 00:27:28;;;;;;;12.48;7.32;;;;;;;-140.66;100.00;55571.53;5116088;28;20097;-77
2023/06/07 00:30:17;;;;;;;14.27;7.57;;;;;;;-140.66;100.00;55571.53;5101241;28;20032;-76
2023/06/07 00:33:02;;;;;;;9.45;6.47;;;;;;;-140.66;100.00;55571.53;5101479;28;20038;-77
2023/06/07 00:35:48;;;;;;;13.35;7.20;;;;;;;-140.66;100.00;55571.53;5101406;28;20043;-77
2023/06/07 00:38:34;;;;;;;12.60;7.22;;;;;;;-140.66;100.00;55571.53;5115740;28;20114;-77
2023/06/07 00:41:20;;;;;;;8.82;7.10;;;;;;;-140.66;100.00;55571.53;5116269;28;20100;-78
2023/06/07 00:44:06;;;;;;;12.95;7.18;;;;;;;-140.66;100.00;55571.53;5102312;28;20337;-76
2023/06/07 00:46:52;;;;;;;12.55;7.32;;;;;;;-140.66;100.00;55571.53;5119639;28;20039;-77
2023/06/07 00:49:38;;;;;;;12.68;7.00;;;;;;;-140.66;100.00;55571.53;5117953;28;20026;-76
2023/06/07 00:52:24;;;;;;;15.95;7.38;;;;;;;-140.66;100.00;55571.53;5123796;28;20008;-76
2023/06/07 00:55:12;;;;;;;10.23;6.93;;;;;;;-140.66;100.00;55571.53;5108977;28;20106;-77
2023/06/07 00:57:58;;;;;;;12.07;6.55;;;;;;;-140.66;100.00;55571.53;5119525;28;20573;-77
2023/06/07 01:00:44;;;;;;;12.48;6.85;;;;;;;-140.66;100.00;55571.53;5100257;28;20055;-77
2023/06/07 01:03:30;;;;;;;9.75;6.43;;;;;;;-140.66;100.00;55571.53;5101080;28;20034;-77
2023/06/07 01:06:16;;;;;;;9.70;6.35;;;;;;;-140.66;100.00;55571.53;5107030;28;20467;-77
2023/06/07 01:09:05;;;;;;;9.85;6.45;;;;;;;-140.66;100.00;55571.53;5125425;28;20027;-77
2023/06/07 01:11:53;;;;;;;17.90;6.75;;;;;;;-140.66;100.00;55571.53;5122198;28;20059;-76
2023/06/07 01:14:38;;;;;;;10.77;6.85;;;;;;;-140.66;100.00;55571.53;5116105;28;20127;-77
2023/06/07 01:17:26;;;;;;;10.93;7.07;;;;;;;-140.66;100.00;55571.53;5123282;28;20039;-77
2023/06/07 01:20:17;;;;;;;9.73;6.70;;;;;;;-140.66;100.00;55571.53;5116737;28;20371;-77
2023/06/07 01:23:07;;;;;;;12.05;6.70;;;;;;;-140.66;100.00;55571.53;5101157;28;20442;-77
2023/06/07 01:25:57;;;;;;;12.32;6.25;;;;;;;-140.66;100.00;55571.53;5115729;28;20101;-77
2023/06/07 01:28:45;;;;;;;11.70;6.88;;;;;;;-140.66;100.00;55571.53;5115374;28;20058;-76
2023/06/07 01:31:31;;;;;;;9.93;6.10;;;;;;;-140.66;100.00;55571.53;5100438;28;20127;-77
2023/06/07 01:34:19;;;;;;;9.60;6.70;;;;;;;-140.66;100.00;55571.53;5099750;28;20177;-78
2023/06/07 01:37:05;;;;;;;9.52;6.45;;;;;;;-140.66;100.00;55571.53;5114324;28;20111;-76
2023/06/07 01:39:53;;;;;;;10.25;6.43;;;;;;;-140.66;100.00;55571.53;5100128;28;20105;-77
2023/06/07 01:42:40;;;;;;;11.65;6.82;;;;;;;-140.66;100.00;55571.53;5100150;28;20023;-76
2023/06/07 01:45:26;;;;;;;13.77;7.68;;;;;;;-140.66;100.00;55571.53;5100222;28;20046;-77
2023/06/07 01:48:11;;;;;;;10.70;6.95;;;;;;;-140.66;100.00;55571.53;5115478;28;20095;-76
2023/06/07 01:50:57;;;;;;;12.20;7.40;;;;;;;-140.66;100.00;55571.53;5100542;28;20033;-77
2023/06/07 01:53:45;;;;;;;12.18;7.95;;;;;;;-140.66;100.00;55571.53;5100223;28;20028;-77
2023/06/07 01:56:46;;;;;;;14.18;8.25;;;;;;;-140.66;100.00;55571.53;5115332;28;20038;-78
2023/06/07 01:59:41;;;;;;;11.95;7.50;;;;;;;-140.66;100.00;55571.53;5115474;28;20020;-77
2023/06/07 02:02:50;;;;;;;11.98;7.65;;;;;;;-140.66;100.00;55571.53;5114715;28;20035;-77
2023/06/07 02:05:40;;;;;;;10.57;7.32;;;;;;;-140.66;100.00;55571.53;5100245;28;20120;-78
2023/06/07 02:08:39;;;;;;;14.25;7.38;;;;;;;-140.66;100.00;55571.53;5100338;28;20020;-77
2023/06/07 02:11:26;;;;;;;11.32;7.72;;;;;;;-140.66;100.00;55571.53;5103686;28;20483;-77
2023/06/07 02:14:12;;;;;;;12.35;7.88;;;;;;;-140.66;100.00;55571.53;5094417;28;20130;-77
2023/06/07 02:16:58;;;;;;;16.25;7.25;;;;;;;-140.66;100.00;55571.53;5093735;28;20027;-77
2023/06/07 02:19:44;;;;;;;11.23;7.38;;;;;;;-140.66;100.00;55571.53;5093898;28;20032;-77
2023/06/07 02:22:29;;;;;;;11.32;8.13;;;;;;;-140.66;100.00;55571.53;5078481;28;20444;-76
2023/06/07 02:25:15;;;;;;;11.38;7.88;;;;;;;-140.66;100.00;55571.53;5094802;28;20342;-77
2023/06/07 02:28:02;;;;;;;12.00;7.80;;;;;;;-140.66;100.00;55571.53;5092493;28;20035;-76
2023/06/07 02:30:48;;;;;;;17.35;7.97;;;;;;;-140.66;100.00;55571.53;5079173;28;20039;-77
2023/06/07 02:33:34;;;;;;;12.15;7.75;;;;;;;-140.66;100.00;55571.53;5093803;28;20021;-77
2023/06/07 02:36:24;;;;;;;11.02;7.45;;;;;;;-140.66;100.00;55571.53;5078426;28;20032;-77
2023/06/07 02:39:10;;;;;;;12.05;7.40;;;;;;;-140.66;100.00;55571.53;5077995;28;20440;-77
2023/06/07 02:41:56;;;;;;;12.30;7.78;;;;;;;-140.66;100.00;55571.53;5077770;28;20359;-77
2023/06/07 02:44:41;;;;;;;11.25;7.78;;;;;;;-140.66;100.00;55571.53;5078646;28;20348;-77
2023/06/07 02:47:27;;;;;;;12.35;7.55;;;;;;;-140.66;100.00;55571.53;5094911;28;20417;-78
2023/06/07 02:50:13;;;;;;;14.25;7.85;;;;;;;-140.66;100.00;55571.53;5077816;28;20118;-77
2023/06/07 02:52:59;;;;;;;10.77;7.70;;;;;;;-140.66;100.00;55571.53;5095242;28;20064;-78
2023/06/07 02:55:45;;;;;;;14.60;8.05;;;;;;;-140.66;100.00;55571.53;5078796;28;20103;-78
2023/06/07 02:58:31;;;;;;;16.25;8.32;;;;;;;-140.66;100.00;55571.53;5093263;28;20028;-78
2023/06/07 03:01:18;;;;;;;14.80;8.27;;;;;;;-140.66;100.00;55571.53;5094041;28;20028;-77
2023/06/07 03:04:04;;;;;;;11.35;8.10;;;;;;;-140.66;100.00;55571.53;5093557;28;20020;-77
2023/06/07 03:06:51;;;;;;;14.20;8.90;;;;;;;-140.66;100.00;55571.53;5093842;28;20028;-78
2023/06/07 03:09:37;;;;;;;13.00;8.20;;;;;;;-140.66;100.00;55571.53;5093220;28;20016;-77
2023/06/07 03:12:23;;;;;;;16.42;8.73;;;;;;;-140.66;100.00;55571.53;5097299;28;20130;-78
2023/06/07 03:15:09;;;;;;;11.82;7.07;;;;;;;-140.66;100.00;55571.53;5099115;28;20027;-77
2023/06/07 03:17:55;;;;;;;13.32;7.60;;;;;;;-140.66;100.00;55571.53;5100748;28;20027;-77
2023/06/07 03:20:42;;;;;;;13.88;8.32;;;;;;;-140.66;100.00;55571.53;5116860;28;20102;-77
2023/06/07 03:23:29;;;;;;;11.07;7.70;;;;;;;-140.66;100.00;55571.53;5089021;28;20349;-77
2023/06/07 03:26:16;;;;;;;12.40;7.55;;;;;;;-140.66;100.00;55571.53;5117150;28;20023;-78
2023/06/07 03:29:02;;;;;;;14.38;7.47;;;;;;;-140.66;100.00;55571.53;5118871;28;20369;-76
2023/06/07 03:31:48;;;;;;;14.82;7.22;;;;;;;-140.66;100.00;55571.53;5121253;28;20017;-77
2023/06/07 03:34:34;;;;;;;14.43;7.72;;;;;;;-140.66;100.00;55571.53;5120928;28;20055;-76
2023/06/07 03:37:20;;;;;;;16.35;7.63;;;;;;;-140.66;100.00;55571.53;5122058;28;20042;-77
2023/06/07 03:40:07;;;;;;;13.68;8.52;;;;;;;-140.66;100.00;55571.53;5110783;28;20034;-78
2023/06/07 03:42:53;;;;;;;13.20;7.60;;;;;;;-140.66;100.00;55571.53;5102804;28;20051;-78
2023/06/07 03:45:38;;;;;;;15.38;8.02;;;;;;;-140.66;100.00;55571.53;5117975;28;20063;-77
2023/06/07 03:48:24;;;;;;;15.18;8.18;;;;;;;-140.66;100.00;55571.53;5102441;28;20081;-79
2023/06/07 03:51:10;;;;;;;13.13;7.22;;;;;;;-140.66;100.00;55571.53;5103606;28;20031;-77
2023/06/07 03:53:56;;;;;;;16.40;8.35;;;;;;;-140.66;100.00;55571.53;5102101;28;20115;-78
2023/06/07 03:56:41;;;;;;;11.70;8.18;;;;;;;-140.66;100.00;55571.53;5116566;28;20023;-79
2023/06/07 03:59:27;;;;;;;13.77;8.48;;;;;;;-140.66;100.00;55571.53;5102410;28;20027;-78
2023/06/07 04:02:13;;;;;;;13.05;8.10;;;;;;;-140.66;100.00;55571.53;5101793;28;20023;-77
2023/06/07 04:04:59;;;;;;;17.77;8.73;;;;;;;-140.66;100.00;55571.53;5117469;28;20032;-78
2023/06/07 04:07:47;;;;;;;14.25;8.70;;;;;;;-140.66;100.00;55571.53;5116586;28;20024;-78
2023/06/07 04:10:33;;;;;;;14.23;8.02;;;;;;;-140.66;100.00;55571.53;5115987;28;20473;-78
2023/06/07 04:13:19;;;;;;;12.80;8.80;;;;;;;-140.66;100.00;55571.53;5117031;28;20032;-78
2023/06/07 04:16:04;;;;;;;13.90;8.68;;;;;;;-140.66;100.00;55571.53;5116282;28;20456;-77
2023/06/07 04:18:50;;;;;;;14.85;9.05;;;;;;;-140.66;100.00;55571.53;5116781;28;20459;-77
2023/06/07 04:21:36;;;;;;;13.02;8.93;;;;;;;-140.66;100.00;55571.53;5101247;28;20035;-75
2023/06/07 04:24:22;;;;;;;16.27;8.68;;;;;;;-140.66;100.00;55571.53;5101600;28;20030;-75
2023/06/07 04:27:11;;;;;;;14.90;8.73;;;;;;;-140.66;100.00;55571.53;5116190;28;20027;-76
2023/06/07 04:29:58;;;;;;;14.70;8.77;;;;;;;-140.66;100.00;55571.53;5100641;28;20161;-77
2023/06/07 04:32:44;;;;;;;13.68;8.65;;;;;;;-140.66;100.00;55571.53;5116724;28;20032;-77
2023/06/07 04:35:33;;;;;;;20.77;9.45;;;;;;;-140.66;100.00;55571.53;5117126;28;20110;-77
2023/06/07 04:38:23;;;;;;;10.70;8.10;;;;;;;-140.66;100.00;55571.53;5116249;28;20039;-78
2023/06/07 04:41:13;;;;;;;14.60;8.65;;;;;;;-140.66;100.00;55571.53;5117111;28;20107;-79
2023/06/07 04:44:05;;;;;;;15.93;9.57;;;;;;;-140.66;100.00;55571.53;5121738;28;20096;-78
2023/06/07 04:46:55;;;;;;;22.90;9.75;;;;;;;-140.66;100.00;55571.53;5116199;28;20057;-78
2023/06/07 04:49:41;;;;;;;17.00;9.73;;;;;;;-140.66;100.00;55571.53;5109228;28;20111;-77
2023/06/07 04:52:28;;;;;;;23.13;8.88;;;;;;;-140.66;100.00;55571.53;5130327;28;20039;-77
2023/06/07 04:55:14;;;;;;;20.60;9.02;;;;;;;-140.66;100.00;55571.53;5123153;28;20343;-78
2023/06/07 04:58:04;;;;;;;19.88;8.65;;;;;;;-140.66;100.00;55571.53;5120484;28;20043;-78
2023/06/07 05:00:51;;;;;;;15.40;8.35;;;;;;;-140.66;100.00;55571.53;5118405;28;20028;-78
2023/06/07 05:03:42;;;;;;;17.23;8.02;;;;;;;-140.66;100.00;55571.53;5101583;28;20032;-78
2023/06/07 05:06:29;;;;;;;12.75;7.18;;;;;;;-140.66;100.00;55571.53;5101797;28;20035;-78
2023/06/07 05:09:15;;;;;;;17.80;7.13;;;;;;;-140.66;100.00;55571.53;5115740;28;20084;-78
2023/06/07 05:12:02;;;;;;;14.93;6.10;;;;;;;-140.66;100.00;55571.53;5100759;28;20051;-78
2023/06/07 05:14:48;;;;;;;11.18;6.32;;;;;;;-140.66;100.00;55571.53;5103386;28;20063;-79
2023/06/07 05:17:34;;;;;;;10.20;5.95;;;;;;;-140.66;100.00;55571.53;5105371;28;20054;-77
2023/06/07 05:20:24;;;;;;;10.73;5.80;;;;;;;-140.66;100.00;55571.53;5114081;28;20042;-78
2023/06/07 05:23:15;;;;;;;8.95;5.60;;;;;;;-140.66;100.00;55571.53;5122864;28;20377;-77
2023/06/07 05:26:01;;;;;;;9.68;5.45;;;;;;;-140.66;100.00;55571.53;5120258;28;20020;-77
2023/06/07 05:28:47;;;;;;;9.00;5.18;;;;;;;-140.66;100.00;55571.53;5115890;28;20015;-77
2023/06/07 05:31:32;;;;;;;9.25;5.88;;;;;;;-140.66;100.00;55571.53;5115443;28;20027;-77
2023/06/07 05:34:18;;;;;;;10.77;5.38;;;;;;;-140.66;100.00;55571.53;5115611;28;20119;-78
2023/06/07 05:37:05;;;;;;;11.73;5.38;;;;;;;-140.66;100.00;55571.53;5115286;28;20122;-76
2023/06/07 05:39:51;;;;;;;9.23;4.93;;;;;;;-140.66;100.00;55571.53;5114955;28;20027;-77
2023/06/07 05:42:38;;;;;;;7.57;4.80;;;;;;;-140.66;100.00;55571.53;5099779;28;20024;-77
2023/06/07 05:45:24;;;;;;;6.55;4.38;;;;;;;-140.66;100.00;55571.53;5115078;28;20394;-77
2023/06/07 05:48:10;;;;;;;9.45;5.10;;;;;;;-140.66;100.00;55571.53;5114891;28;20034;-77
2023/06/07 05:50:57;;;;;;;8.73;4.30;;;;;;;-140.66;100.00;55571.53;5099074;28;20117;-77
2023/06/07 05:53:44;;;;;;;10.45;4.10;;;;;;;-140.66;100.00;55571.53;5114602;28;20092;-78
2023/06/07 05:56:30;;;;;;;9.43;4.28;;;;;;;-140.66;100.00;55571.53;5100322;28;20035;-77
2023/06/07 05:59:15;;;;;;;6.28;3.72;;;;;;;-140.66;100.00;55571.53;5114280;28;20039;-77
2023/06/07 06:02:01;;;;;;;8.35;4.43;;;;;;;-140.66;100.00;55571.53;5114333;28;20035;-77
2023/06/07 06:04:47;;;;;;;8.48;4.10;;;;;;;-140.66;100.00;55571.53;5115016;28;20066;-77
2023/06/07 06:07:33;;;;;;;6.63;4.43;;;;;;;-140.66;100.00;55571.53;5099963;28;20061;-76
2023/06/07 06:10:19;;;;;;;9.20;4.70;;;;;;;-140.66;100.00;55571.53;5114770;28;20027;-77
2023/06/07 06:13:04;;;;;;;7.22;4.00;;;;;;;-140.66;100.00;55571.53;5100822;28;20023;-77
2023/06/07 06:15:50;;;;;;;9.43;4.85;;;;;;;-140.66;100.00;55571.53;5114672;28;20102;-77
2023/06/07 06:18:36;;;;;;;7.72;4.13;;;;;;;-140.66;100.00;55571.53;5099292;28;20024;-75
2023/06/07 06:21:22;;;;;;;6.65;3.50;;;;;;;-140.66;100.00;55571.53;5114502;28;20020;-77
2023/06/07 06:24:08;;;;;;;8.23;3.17;;;;;;;-140.66;100.00;55571.53;5113935;28;20421;-78
2023/06/07 06:26:53;;;;;;;7.80;3.50;;;;;;;-140.66;100.00;55571.53;5099931;28;20032;-77
2023/06/07 06:29:39;;;;;;;6.15;3.80;;;;;;;-140.66;100.00;55571.53;5099275;28;20023;-76
2023/06/07 06:32:25;;;;;;;10.75;3.80;;;;;;;-140.66;100.00;55571.53;5113745;28;20033;-76
2023/06/07 06:35:10;;;;;;;11.73;4.03;;;;;;;-140.66;100.00;55571.53;5114981;28;20399;-77
2023/06/07 06:37:56;;;;;;;12.93;4.03;;;;;;;-140.66;100.00;55571.53;5115335;28;20162;-77
2023/06/07 06:40:42;;;;;;;6.50;3.58;;;;;;;-140.66;100.00;55571.53;5100678;28;20020;-77
2023/06/07 06:43:28;;;;;;;11.05;3.88;;;;;;;-140.66;100.00;55571.53;5100192;28;20402;-78
2023/06/07 06:46:13;;;;;;;8.88;3.53;;;;;;;-140.66;100.00;55571.53;5116765;28;20027;-76
2023/06/07 06:48:59;;;;;;;8.45;3.20;;;;;;;-140.66;100.00;55571.53;5099996;28;20085;-77
2023/06/07 06:51:45;;;;;;;13.70;3.65;;;;;;;-140.66;100.00;55571.53;5101188;28;20023;-77
2023/06/07 06:54:35;;;;;;;9.57;3.80;;;;;;;-140.66;100.00;55571.53;5119776;28;20030;-77
2023/06/07 06:57:21;;;;;;;5.57;3.45;;;;;;;-140.66;100.00;55571.53;5122422;28;20027;-77
2023/06/07 07:00:10;;;;;;;10.07;3.65;;;;;;;-140.66;100.00;55571.53;5108724;28;20451;-77
2023/06/07 07:02:56;;;;;;;6.68;3.30;;;;;;;-140.66;100.00;55571.53;5123495;28;20062;-77
2023/06/07 07:05:42;;;;;;;18.00;4.70;;;;;;;-140.66;100.00;55571.53;5122854;28;20032;-77
2023/06/07 07:08:28;;;;;;;8.98;3.60;;;;;;;-140.66;100.00;55571.53;5123040;28;20091;-77
2023/06/07 07:11:13;;;;;;;13.02;4.00;;;;;;;-140.66;100.00;55571.53;5112817;28;20043;-78
2023/06/07 07:13:59;;;;;;;9.43;3.97;;;;;;;-140.66;100.00;55571.53;5097956;28;20024;-77
2023/06/07 07:16:45;;;;;;;11.35;4.07;;;;;;;-140.66;100.00;55571.53;5084209;28;20348;-77
2023/06/07 07:19:30;;;;;;;17.88;4.43;;;;;;;-140.66;100.00;55571.53;5083475;28;20035;-77
2023/06/07 07:22:16;;;;;;;6.75;3.50;;;;;;;-140.66;100.00;55571.53;5087570;28;20127;-76
2023/06/07 07:25:02;;;;;;;15.18;4.20;;;;;;;-140.66;100.00;55571.53;5100417;28;20084;-76
2023/06/07 07:27:48;;;;;;;11.38;3.90;;;;;;;-140.66;100.00;55571.53;5086024;28;20031;-77
2023/06/07 07:30:33;;;;;;;5.90;3.60;;;;;;;-140.66;100.00;55571.53;5100854;28;20094;-77
2023/06/07 07:33:19;;;;;;;14.43;4.38;;;;;;;-140.66;100.00;55571.53;5101204;28;20436;-76
2023/06/07 07:36:05;;;;;;;6.95;3.58;;;;;;;-140.66;100.00;55571.53;5105604;28;20119;-77
2023/06/07 07:38:51;;;;;;;5.75;3.65;;;;;;;-140.66;100.00;55571.53;5104140;28;20024;-76
2023/06/07 07:41:40;;;;;;;5.05;3.40;;;;;;;-140.66;100.00;55571.53;5100583;28;20060;-76
2023/06/07 07:44:25;;;;;;;10.43;3.65;;;;;;;-140.66;100.00;55571.53;5085673;28;20036;-76
2023/06/07 07:47:11;;;;;;;36.45;6.97;;;;;;;-140.66;100.00;55571.53;5102641;28;20115;-77
2023/06/07 07:49:57;;;;;;;36.65;5.80;;;;;;;-140.66;100.00;55571.53;5098187;28;20020;-77
2023/06/07 07:52:43;;;;;;;8.65;3.50;;;;;;;-140.66;100.00;55571.53;5084646;28;20027;-77
2023/06/07 07:55:30;;;;;;;8.32;3.60;;;;;;;-140.66;100.00;55571.53;5099320;28;20074;-77
2023/06/07 07:58:16;;;;;;;27.65;4.95;;;;;;;-140.66;100.00;55571.53;5103756;28;20028;-78
2023/06/07 08:01:03;;;;;;;9.23;3.13;;;;;;;-140.66;100.00;55571.53;5102394;28;20024;-76
2023/06/07 08:03:48;;;;;;;12.07;3.70;;;;;;;-140.66;100.00;55571.53;5102524;28;20046;-77
2023/06/07 08:06:35;;;;;;;9.63;3.78;;;;;;;-140.66;100.00;55571.53;5101008;28;20028;-81
2023/06/07 08:09:20;;;;;;;25.73;4.70;;;;;;;-140.66;100.00;55571.53;5098416;28;20432;-81
2023/06/07 08:12:08;;;;;;;28.02;5.18;;;;;;;-140.66;100.00;55571.53;5099212;28;20056;-82
2023/06/07 08:14:54;;;;;;;12.98;4.25;;;;;;;-140.66;100.00;55571.53;5103030;28;20095;-81
2023/06/07 08:17:40;;;;;;;18.05;4.95;;;;;;;-140.66;100.00;55571.53;5117074;28;20051;-83
2023/06/07 08:20:26;;;;;;;9.95;3.83;;;;;;;26.98;64.14;101366.28;5117516;28;20105;-83
2023/06/07 08:23:12;;;;;;;9.80;3.63;;;;;;;27.64;65.01;101362.94;5103087;28;20028;-83
2023/06/07 08:25:58;;;;;;;6.25;2.90;;;;;;;27.65;63.70;101361.13;5102508;28;20028;-83
2023/06/07 08:28:44;;;;;;;6.60;2.97;;;;;;;27.39;62.71;101349.69;5117878;28;20024;-83
2023/06/07 08:31:30;;;;;;;8.35;3.45;;;;;;;27.81;61.87;101359.81;5106974;28;20079;-82
2023/06/07 08:34:16;;;;;;;11.45;3.65;;;;;;;28.23;57.94;101358.25;5127400;28;20027;-81
2023/06/07 08:37:02;;;;;;;9.20;3.25;;;;;;;28.16;59.11;101360.56;5112239;28;20077;-81
2023/06/07 08:39:48;;;;;;;4.72;2.90;;;;;;;27.72;55.64;101359.66;5122220;28;20031;-80
2023/06/07 08:42:33;;;;;;;11.98;3.17;;;;;;;27.71;58.26;101364.19;5110329;28;20348;-82
2023/06/07 08:45:20;;;;;;;18.08;4.18;;;;;;;27.70;60.21;101364.31;5121587;28;20061;-81
2023/06/07 08:48:06;;;;;;;7.43;3.13;;;;;;;27.22;58.40;101360.88;5104864;28;20034;-78
2023/06/07 08:50:54;;;;;;;9.50;3.20;;;;;;;27.77;59.03;101358.34;5120933;28;20412;-80
2023/06/07 08:53:55;;;;;;;8.77;2.78;;;;;;;28.61;54.08;101362.25;5107878;28;20476;-81
2023/06/07 08:56:41;;;;;;;7.00;2.53;;;;;;;28.01;51.51;101360.94;5113871;28;20106;-81
2023/06/07 08:59:27;;;;;;;8.52;2.70;;;;;;;28.00;53.88;101361.94;5128941;28;20019;-80
2023/06/07 09:02:13;;;;;;;10.30;3.25;;;;;;;27.61;55.83;101357.81;5119513;28;20019;-81
2023/06/07 09:05:02;;;;;;;10.80;3.55;;;;;;;28.44;51.72;101359.25;5123070;28;20024;-82
2023/06/07 09:07:48;;;;;;;8.63;2.80;;;;;;;28.80;49.70;101353.53;5126157;28;20051;-82
2023/06/07 09:10:34;;;;;;;16.48;3.42;;;;;;;28.76;48.04;101362.88;5122570;28;20032;-83
2023/06/07 09:13:20;;;;;;;8.93;2.72;;;;;;;28.61;45.31;101356.03;5100719;28;20367;-82
2023/06/07 09:16:06;;;;;;;7.75;2.38;;;;;;;28.78;44.63;101347.38;5082573;28;20028;-81
2023/06/07 09:18:55;;;;;;;11.15;2.90;;;;;;;28.01;47.29;101358.25;5096154;28;20028;-82
2023/06/07 09:21:41;;;;;;;13.85;3.60;;;;;;;28.43;48.93;101354.81;5080738;28;20020;-83
2023/06/07 09:24:28;;;;;;;7.88;2.53;;;;;;;28.14;49.06;101350.91;5096621;28;20473;-82
2023/06/07 09:27:29;;;;;;;9.90;2.60;;;;;;;28.69;48.00;101346.28;5098491;28;20048;-82
2023/06/07 09:30:17;;;;;;;6.28;2.50;;;;;;;28.07;47.04;101339.75;5098157;28;20035;-82
2023/06/07 09:33:03;;;;;;;7.82;2.78;;;;;;;28.33;47.25;101343.06;5099653;28;20119;-82
2023/06/07 09:36:21;;;;;;;7.75;2.88;;;;;;;28.65;45.02;101349.41;5085506;28;20020;-82
2023/06/07 09:39:20;;;;;;;5.22;2.70;;;;;;;28.69;46.45;101350.84;5097952;28;20031;-82
2023/06/07 09:42:16;;;;;;;6.60;2.45;;;;;;;28.18;45.23;101353.22;5098088;28;20028;-78
2023/06/07 09:45:12;;;;;;;5.30;2.40;;;;;;;28.43;45.39;101358.38;5117397;28;20028;-78
2023/06/07 09:48:02;;;;;;;6.95;2.50;;;;;;;28.42;45.79;101353.09;5110591;28;20024;-80
2023/06/07 09:50:58;;;;;;;11.20;2.90;;;;;;;28.71;44.63;101351.56;5101822;28;20046;-81
2023/06/07 09:53:56;;;;;;;10.32;2.45;;;;;;;27.87;43.96;101348.56;5101494;28;20101;-82
2023/06/07 09:56:42;;;;;;;7.10;3.15;;;;;;;27.87;44.92;101340.50;5097176;28;20063;-81
2023/06/07 09:59:27;;;;;;;15.07;2.90;;;;;;;28.04;45.07;101339.16;5082875;28;20409;-82
2023/06/07 10:02:24;;;;;;;5.18;2.25;;;;;;;28.47;45.18;101343.66;5083031;28;20027;-81
2023/06/07 10:05:14;;;;;;;5.25;2.50;;;;;;;27.88;44.95;101336.81;5086067;28;20115;-82
2023/06/07 10:08:00;;;;;;;5.28;2.63;;;;;;;28.27;45.13;101338.13;5097626;28;20101;-82
2023/06/07 10:10:48;;;;;;;5.45;2.40;;;;;;;28.89;41.70;101334.72;5085971;28;20048;-81
2023/06/07 10:13:37;;;;;;;9.95;3.17;;;;;;;29.05;42.78;101337.03;5117267;28;20042;-81
2023/06/07 10:16:28;;;;;;;5.78;3.00;;;;;;;28.62;41.46;101336.16;5117480;28;20024;-81
2023/06/07 10:19:40;;;;;;;3.45;2.55;;;;;;;28.59;39.36;101334.56;5117290;28;20032;-84
2023/06/07 10:22:32;;;;;;;5.97;2.70;;;;;;;28.38;42.36;101325.53;5127079;28;20448;-82
2023/06/07 10:25:23;;;;;;;4.70;2.47;;;;;;;28.47;42.63;101326.63;5116065;28;20108;-81
2023/06/07 10:28:41;;;;;;;5.50;2.50;;;;;;;28.69;43.12;101322.03;5114935;28;20039;-82
2023/06/07 10:31:34;;;;;;;6.68;2.63;;;;;;;29.20;41.77;101317.69;5086831;28;20092;-82
2023/06/07 10:34:21;;;;;;;7.60;2.80;;;;;;;28.73;43.62;101322.66;5115034;28;20027;-82
2023/06/07 10:37:07;;;;;;;9.30;3.25;;;;;;;29.02;41.13;101321.97;5115171;28;20027;-82
2023/06/07 10:39:53;;;;;;;12.10;3.00;;;;;;;28.77;39.20;101319.53;5100000;28;20024;-81
2023/06/07 10:42:44;;;;;;;4.10;2.28;;;;;;;28.35;38.49;101319.50;5114097;28;20023;-82
2023/06/07 10:45:30;;;;;;;8.73;2.80;;;;;;;28.94;40.23;101310.03;5099174;28;20354;-82
2023/06/07 10:48:33;;;;;;;5.53;2.75;;;;;;;28.50;41.34;101312.91;5114072;28;20042;-81
2023/06/07 10:51:48;;;;;;;6.05;2.88;;;;;;;28.60;40.78;101309.31;5099466;28;20114;-80
2023/06/07 10:54:35;;;;;;;3.97;2.58;;;;;;;28.88;40.62;101311.41;5100695;28;20024;-81
2023/06/07 10:57:38;;;;;;;5.05;2.70;;;;;;;29.45;40.33;101309.16;5116541;28;20063;-82
2023/06/07 11:00:33;;;;;;;3.70;2.60;;;;;;;28.94;41.38;101302.81;5100403;28;20035;-82
2023/06/07 11:03:25;;;;;;;9.65;3.03;;;;;;;29.49;41.07;101305.22;5114389;28;20031;-81
2023/06/07 11:06:11;;;;;;;7.07;2.58;;;;;;;28.76;40.64;101298.97;5114253;28;20107;-81
2023/06/07 11:09:19;;;;;;;6.75;2.80;;;;;;;29.27;40.75;101299.97;5099971;28;20386;-81
2023/06/07 11:12:06;;;;;;;6.68;2.90;;;;;;;29.42;38.99;101295.97;5100647;28;20468;-81
2023/06/07 11:15:16;;;;;;;4.88;3.10;;;;;;;29.30;37.94;101291.63;5114594;28;20110;-82
2023/06/07 11:18:08;;;;;;;5.10;2.65;;;;;;;28.98;39.03;101288.09;5114887;28;20043;-82
2023/06/07 11:20:54;;;;;;;7.53;2.70;;;;;;;28.72;40.13;101286.72;5101416;28;20039;-82
2023/06/07 11:23:41;;;;;;;6.95;2.80;;;;;;;28.98;40.10;101281.81;5100863;28;20128;-82
2023/06/07 11:26:27;;;;;;;11.52;3.00;;;;;;;28.34;40.91;101286.31;5114940;28;20035;-82
2023/06/07 11:29:19;;;;;;;5.47;2.47;;;;;;;29.04;39.93;101270.53;5115104;28;20020;-82
2023/06/07 11:32:07;;;;;;;6.05;2.88;;;;;;;29.40;40.41;101273.63;5100325;28;20031;-82
2023/06/07 11:34:57;;;;;;;7.90;2.50;;;;;;;28.71;39.61;101273.34;5102784;28;20042;-82
2023/06/07 11:37:43;;;;;;;4.90;2.67;;;;;;;29.35;38.89;101259.66;5102240;28;20093;-81
2023/06/07 11:40:29;;;;;;;7.35;2.80;;;;;;;29.16;39.84;101266.78;5121002;28;20020;-81
2023/06/07 11:43:22;;;;;;;6.55;2.65;;;;;;;29.11;40.40;101261.78;5123204;28;20142;-81
2023/06/07 11:46:13;;;;;;;8.27;2.45;;;;;;;29.54;39.65;101257.06;5121165;28;20038;-81
2023/06/07 11:49:17;;;;;;;5.15;2.72;;;;;;;28.98;40.60;101252.13;5121884;28;20020;-81
2023/06/07 11:52:03;;;;;;;6.53;2.88;;;;;;;28.92;40.33;101255.34;5120273;28;20359;-82
2023/06/07 11:54:49;;;;;;;6.43;2.83;;;;;;;28.95;40.82;101245.16;5121612;28;20055;-82
2023/06/07 11:57:38;;;;;;;5.43;2.90;;;;;;;29.16;39.47;101251.44;5120984;28;20165;-81
2023/06/07 12:00:23;;;;;;;4.85;2.80;;;;;;;28.64;39.20;101258.69;5106277;28;20023;-81
2023/06/07 12:03:13;;;;;;;4.90;2.85;;;;;;;28.33;39.66;101246.84;5116227;28;20047;-74
2023/06/07 12:05:59;;;;;;;5.15;2.60;;;;;;;28.79;39.93;101250.16;5114186;28;20016;-78
2023/06/07 12:08:49;;;;;;;4.13;2.70;;;;;;;29.03;38.76;101248.09;5097007;28;20016;-79
2023/06/07 12:11:37;;;;;;;12.05;3.08;;;;;;;29.08;38.52;101247.69;5122031;27;20112;-78
2023/06/07 12:14:32;;;;;;;9.00;2.95;;;;;;;28.73;37.64;101252.50;5137680;27;20029;-78
2023/06/07 12:17:20;;;;;;;4.85;3.05;;;;;;;28.61;36.75;101242.75;5122483;27;20030;-79
2023/06/07 12:20:14;;;;;;;5.25;2.97;;;;;;;28.84;36.86;101244.34;5122038;27;20455;-78
2023/06/07 12:23:03;;;;;;;3.67;2.55;;;;;;;29.03;37.26;101234.59;5136517;27;20507;-81
2023/06/07 12:25:49;;;;;;;5.13;3.05;;;;;;;29.74;36.85;101241.84;5096173;28;20024;-80
2023/06/07 12:28:36;;;;;;;6.20;2.97;;;;;;;29.94;36.49;101236.34;5082036;28;20102;-80
2023/06/07 12:31:28;;;;;;;8.20;2.65;;;;;;;29.93;37.02;101229.25;5080909;28;20107;-80
2023/06/07 12:34:14;;;;;;;6.97;2.70;;;;;;;29.75;35.64;101230.91;5095434;28;20035;-80
2023/06/07 12:37:01;;;;;;;8.02;2.42;;;;;;;29.72;36.13;101231.16;5096142;28;20028;-80
2023/06/07 12:39:49;;;;;;;11.10;3.15;;;;;;;30.21;36.18;101223.06;5080895;28;20067;-80
2023/06/07 12:42:38;;;;;;;8.57;2.90;;;;;;;30.45;35.71;101223.53;5095296;28;20483;-81
2023/06/07 12:45:36;;;;;;;3.80;2.63;;;;;;;29.80;35.61;101223.22;5094923;28;20107;-80